Aqualoyalty — A8ZC6 — position and weather

sailwx.info

Track history (hours):
 
Tides and Currents Weather Stations Pressure Air Temp Water Temp Dewpoint Dewpoint Depression Visibility Wind Speed Wind Dir Waves Ship Positions

Aqualoyalty

Last reported at 2016-May-31 15:28 UTC. Time now 2016-May-31 21:54 UTC.
Position N 32°12' W 117°42'.

Length 249 m; draft 8.5 m.

Type: Ship. MMSI: 636015177.

Date/timePositionNaut miles runAvg speedWind from/ knotsBaromVisibWave heightAir tempDewpointWater temp
2016-May-31 15:28N 32°12' W 117°42'1112.1
2016-May-31 14:33N 32°23' W 117°46'1111.2
2016-May-31 13:33N 32°34' W 117°50'1110.9
2016-May-31 12:33N 32°44' W 117°54'1110.9
2016-May-31 11:33N 32°55' W 117°57'1110.8
2016-May-31 10:33N 33°05' W 118°01'1111.1
2016-May-31 09:33N 33°16' W 118°05'1110.6
2016-May-31 08:33N 33°26' W 118°09'1111.0
2016-May-31 07:33N 33°36' W 118°13'8 7.7
2016-May-31 06:33N 33°44' W 118°12'1 0.5
2016-May-31 04:32N 33°44' W 118°13'0 0.0
2016-May-31 03:32N 33°44' W 118°13'0 0.0
2016-May-31 02:32N 33°44' W 118°13'0 0.0
2016-May-31 01:32N 33°44' W 118°13'0 0.0
2016-May-31 00:32N 33°44' W 118°13'0 0.0
2016-May-30 23:32N 33°44' W 118°13'0 0.0
2016-May-30 22:32N 33°44' W 118°13'0 0.0
2016-May-30 21:32N 33°44' W 118°13'1 0.8
2016-May-30 20:33N 33°45' W 118°13'1 0.5
2016-May-30 19:31N 33°45' W 118°13'0 0.0
2016-May-30 18:31N 33°45' W 118°13'0 0.0
2016-May-30 17:31N 33°45' W 118°13'0 0.0
2016-May-30 16:31N 33°45' W 118°13'0 0.0
2016-May-30 15:28N 33°45' W 118°13'0 0.0
2016-May-30 14:31N 33°45' W 118°13'0 0.0
2016-May-30 13:31N 33°45' W 118°13'0 0.0
2016-May-30 12:31N 33°45' W 118°13'0 0.0
2016-May-30 11:28N 33°45' W 118°13'0 0.0
2016-May-30 10:31N 33°45' W 118°13'0 0.0
2016-May-30 09:31N 33°45' W 118°13'0 0.0
2016-May-30 08:31N 33°45' W 118°13'0 0.0
2016-May-30 05:28N 33°45' W 118°13'0 0.0
2016-May-30 04:31N 33°45' W 118°13'0 0.0
2016-May-30 03:31N 33°45' W 118°13'0 0.0
2016-May-30 02:13N 33°45' W 118°13'0 0.0
2016-May-30 00:31N 33°45' W 118°13'0 0.0
2016-May-29 23:31N 33°45' W 118°13'0 0.0
2016-May-29 22:31N 33°45' W 118°13'0 0.0
2016-May-29 21:22N 33°45' W 118°13'0 0.0
2016-May-29 20:19N 33°45' W 118°13'0 0.0
2016-May-29 19:31N 33°45' W 118°13'0 0.0
2016-May-29 18:31N 33°45' W 118°13'0 0.0
2016-May-29 17:31N 33°45' W 118°13'0 0.0
2016-May-29 16:31N 33°45' W 118°13'0 0.0
2016-May-29 15:31N 33°45' W 118°13'1 0.8
2016-May-29 14:33N 33°46' W 118°13'0 0.2
2016-May-29 13:33N 33°46' W 118°13'0 0.0
2016-May-29 12:33N 33°46' W 118°13'0 0.0
2016-May-29 11:33N 33°46' W 118°13'0 0.0
2016-May-29 10:33N 33°46' W 118°13'0 0.0
2016-May-29 09:33N 33°46' W 118°13'0 0.0
2016-May-29 08:33N 33°46' W 118°13'0 0.0
2016-May-29 07:33N 33°46' W 118°13'0 0.0
2016-May-29 06:33N 33°46' W 118°13'0 0.0
2016-May-29 05:33N 33°46' W 118°13'0 0.0
2016-May-29 04:33N 33°46' W 118°13'0 0.0
2016-May-29 03:33N 33°46' W 118°13'0 0.0
2016-May-29 02:33N 33°46' W 118°13'0 0.0
2016-May-29 01:33N 33°46' W 118°13'0 0.0
2016-May-29 00:33N 33°46' W 118°13'0 0.0
2016-May-28 23:33N 33°46' W 118°13'0 0.0
2016-May-28 22:33N 33°46' W 118°13'0 0.0
2016-May-28 21:33N 33°46' W 118°13'0 0.0
2016-May-28 20:33N 33°46' W 118°13'0 0.0
2016-May-28 19:33N 33°46' W 118°13'0 0.0
2016-May-28 18:33N 33°46' W 118°13'0 0.0
2016-May-28 17:33N 33°46' W 118°13'0 0.0
2016-May-28 16:33N 33°46' W 118°13'0 0.0
2016-May-28 15:33N 33°46' W 118°13'0 0.0
2016-May-28 14:27N 33°46' W 118°13'0 0.0
2016-May-28 13:33N 33°46' W 118°13'0 0.0
2016-May-27 23:27N 33°46' W 118°13'0 0.0
2016-May-27 19:07N 33°46' W 118°13'1 1.7
2016-May-27 18:22N 33°45' W 118°13'1 0.1
2016-May-27 04:29N 33°44' W 118°12'0 0.0
2016-May-26 23:14N 33°44' W 118°12'0 0.0
2016-May-26 13:30N 33°44' W 118°12'5 5.2
2016-May-26 12:32N 33°39' W 118°10'7 7.3
2016-May-26 11:33N 33°32' W 118°08'9 9.5
2016-May-26 10:33N 33°23' W 118°04'1010.3
2016-May-26 09:33N 33°13' W 118°00'1110.6
2016-May-26 08:33N 33°03' W 117°56'1110.7
2016-May-26 07:33N 32°53' W 117°53'1010.5
2016-May-26 06:34N 32°43' W 117°49'1010.4
2016-May-26 05:33N 32°33' W 117°45'7 6.9
2016-May-26 04:33N 32°27' W 117°48'6 6.4
2016-May-26 03:33N 32°22' W 117°43'4 4.2
2016-May-26 02:33N 32°23' W 117°38'1 0.8
2016-May-26 01:33N 32°23' W 117°39'1 0.9
2016-May-26 00:32N 32°24' W 117°40'1 0.8
2016-May-25 23:34N 32°24' W 117°40'1 0.8
2016-May-25 22:33N 32°24' W 117°41'1 0.7
2016-May-25 21:33N 32°25' W 117°42'1 0.6
2016-May-25 20:33N 32°25' W 117°43'1 0.6
2016-May-25 19:33N 32°25' W 117°44'0 0.2
2016-May-25 18:33N 32°25' W 117°44'1 1.2
2016-May-25 17:33N 32°25' W 117°43'7 6.9
2016-May-25 16:33N 32°26' W 117°35'0 0.3
2016-May-25 15:33N 32°25' W 117°35'0 0.3
2016-May-25 14:33N 32°25' W 117°34'0 0.2
2016-May-25 13:33N 32°25' W 117°34'0 0.0
2016-May-25 12:33N 32°25' W 117°34'0 0.1
2016-May-25 11:33N 32°25' W 117°35'0 0.2
2016-May-25 10:33N 32°25' W 117°35'0 0.1
2016-May-25 09:33N 32°25' W 117°35'0 0.2
2016-May-25 08:33N 32°25' W 117°35'0 0.2
2016-May-25 07:33N 32°25' W 117°35'0 0.1
2016-May-25 06:33N 32°25' W 117°35'0 0.0
2016-May-25 05:33N 32°25' W 117°35'0 0.2
2016-May-25 04:33N 32°25' W 117°35'0 0.2
2016-May-25 03:33N 32°25' W 117°35'0 0.1
2016-May-25 02:33N 32°25' W 117°35'0 0.2
2016-May-25 01:33N 32°25' W 117°36'0 0.2
2016-May-25 00:33N 32°25' W 117°36'0 0.4
2016-May-24 23:33N 32°25' W 117°36'0 0.4
2016-May-24 22:32N 32°25' W 117°37'0 0.4
2016-May-24 21:33N 32°25' W 117°37'0 0.5
2016-May-24 20:33N 32°25' W 117°38'0 0.4
2016-May-24 19:33N 32°25' W 117°38'0 0.3
2016-May-24 18:33N 32°25' W 117°39'0 0.2
2016-May-24 17:33N 32°24' W 117°39'0 0.1
2016-May-24 16:33N 32°24' W 117°39'0 0.1
2016-May-24 15:33N 32°24' W 117°39'0 0.1
2016-May-24 14:33N 32°24' W 117°39'0 0.3
2016-May-24 13:33N 32°24' W 117°39'0 0.3
2016-May-24 12:33N 32°24' W 117°40'0 0.2
2016-May-24 11:34N 32°24' W 117°40'0 0.2
2016-May-24 10:33N 32°25' W 117°40'0 0.3
2016-May-24 09:33N 32°25' W 117°40'0 0.3
2016-May-24 08:33N 32°25' W 117°41'0 0.2
2016-May-24 07:33N 32°25' W 117°41'0 0.1
2016-May-24 06:33N 32°25' W 117°41'0 0.2
2016-May-24 05:33N 32°25' W 117°41'0 0.2
2016-May-24 04:33N 32°25' W 117°41'0 0.4
2016-May-24 03:33N 32°26' W 117°41'0 0.4
2016-May-24 02:33N 32°26' W 117°42'1 0.6
2016-May-24 01:33N 32°26' W 117°42'0 0.5
2016-May-24 00:33N 32°26' W 117°43'1 0.5
2016-May-23 23:33N 32°27' W 117°43'1 0.5
2016-May-23 22:33N 32°27' W 117°44'1 0.6
2016-May-23 21:33N 32°27' W 117°44'0 0.4
2016-May-23 20:33N 32°27' W 117°45'0 0.3
2016-May-23 19:33N 32°27' W 117°45'0 0.1
2016-May-23 18:33N 32°26' W 117°45'4 4.1
2016-May-23 17:33N 32°30' W 117°44'3 2.7
2016-May-23 16:33N 32°32' W 117°41'1 0.6
2016-May-23 15:33N 32°32' W 117°42'1 0.6
2016-May-23 14:33N 32°31' W 117°42'0 0.4
2016-May-23 13:33N 32°31' W 117°42'0 0.1
2016-May-23 12:33N 32°31' W 117°42'0 0.1
2016-May-23 11:33N 32°31' W 117°42'0 0.1
2016-May-23 10:33N 32°31' W 117°42'0 0.1
2016-May-23 09:33N 32°31' W 117°42'0 0.1
2016-May-23 08:33N 32°31' W 117°42'0 0.1
2016-May-23 07:33N 32°31' W 117°41'0 0.1
2016-May-23 06:33N 32°31' W 117°41'0 0.1
2016-May-23 05:33N 32°31' W 117°41'0 0.2
2016-May-23 04:32N 32°31' W 117°41'0 0.3
2016-May-23 03:33N 32°31' W 117°41'0 0.4
2016-May-23 02:33N 32°32' W 117°41'0 0.3
2016-May-23 01:33N 32°32' W 117°42'0 0.4
2016-May-23 00:33N 32°32' W 117°42'0 0.3
2016-May-22 23:33N 32°32' W 117°42'0 0.4
2016-May-22 22:33N 32°32' W 117°43'0 0.4
2016-May-22 21:33N 32°32' W 117°43'0 0.4
2016-May-22 20:33N 32°32' W 117°43'0 0.4
2016-May-22 19:33N 32°31' W 117°44'0 0.4
2016-May-22 18:33N 32°31' W 117°44'0 0.3
2016-May-22 17:33N 32°31' W 117°44'0 0.2
2016-May-22 16:33N 32°31' W 117°44'0 0.3
2016-May-22 15:33N 32°30' W 117°45'0 0.4
2016-May-22 14:33N 32°30' W 117°45'0 0.4
2016-May-22 13:33N 32°30' W 117°46'0 0.4
2016-May-22 12:33N 32°30' W 117°46'0 0.4
2016-May-22 11:33N 32°30' W 117°47'0 0.3
2016-May-22 10:33N 32°30' W 117°47'0 0.1
2016-May-22 09:32N 32°30' W 117°47'0 0.0
2016-May-22 08:33N 32°30' W 117°47'0 0.2
2016-May-22 07:33N 32°30' W 117°47'4 4.1
2016-May-22 06:33N 32°26' W 117°46'1312.6
2016-May-22 05:33N 32°14' W 117°42'  
Track history (hours):
 
Tides and Currents Weather Stations Pressure Air Temp Water Temp Dewpoint Dewpoint Depression Visibility Wind Speed Wind Dir Waves Ship Positions

Aqualoyalty

Last reported at 2016-May-31 15:28 UTC. Time now 2016-May-31 21:54 UTC.
Position N 32°12' W 117°42'.

Length 249 m; draft 8.5 m.

Type: Ship. MMSI: 636015177.

Date/timePositionNaut miles runAvg speedWind from/ knotsBaromVisibWave heightAir tempDewpointWater temp
2016-May-31 15:28N 32°12' W 117°42'1112.1
2016-May-31 14:33N 32°23' W 117°46'1111.2
2016-May-31 13:33N 32°34' W 117°50'1110.9
2016-May-31 12:33N 32°44' W 117°54'1110.9
2016-May-31 11:33N 32°55' W 117°57'1110.8
2016-May-31 10:33N 33°05' W 118°01'1111.1
2016-May-31 09:33N 33°16' W 118°05'1110.6
2016-May-31 08:33N 33°26' W 118°09'1111.0
2016-May-31 07:33N 33°36' W 118°13'8 7.7
2016-May-31 06:33N 33°44' W 118°12'1 0.5
2016-May-31 04:32N 33°44' W 118°13'0 0.0
2016-May-31 03:32N 33°44' W 118°13'0 0.0
2016-May-31 02:32N 33°44' W 118°13'0 0.0
2016-May-31 01:32N 33°44' W 118°13'0 0.0
2016-May-31 00:32N 33°44' W 118°13'0 0.0
2016-May-30 23:32N 33°44' W 118°13'0 0.0
2016-May-30 22:32N 33°44' W 118°13'0 0.0
2016-May-30 21:32N 33°44' W 118°13'1 0.8
2016-May-30 20:33N 33°45' W 118°13'1 0.5
2016-May-30 19:31N 33°45' W 118°13'0 0.0
2016-May-30 18:31N 33°45' W 118°13'0 0.0
2016-May-30 17:31N 33°45' W 118°13'0 0.0
2016-May-30 16:31N 33°45' W 118°13'0 0.0
2016-May-30 15:28N 33°45' W 118°13'0 0.0
2016-May-30 14:31N 33°45' W 118°13'0 0.0
2016-May-30 13:31N 33°45' W 118°13'0 0.0
2016-May-30 12:31N 33°45' W 118°13'0 0.0
2016-May-30 11:28N 33°45' W 118°13'0 0.0
2016-May-30 10:31N 33°45' W 118°13'0 0.0
2016-May-30 09:31N 33°45' W 118°13'0 0.0
2016-May-30 08:31N 33°45' W 118°13'0 0.0
2016-May-30 05:28N 33°45' W 118°13'0 0.0
2016-May-30 04:31N 33°45' W 118°13'0 0.0
2016-May-30 03:31N 33°45' W 118°13'0 0.0
2016-May-30 02:13N 33°45' W 118°13'0 0.0
2016-May-30 00:31N 33°45' W 118°13'0 0.0
2016-May-29 23:31N 33°45' W 118°13'0 0.0
2016-May-29 22:31N 33°45' W 118°13'0 0.0
2016-May-29 21:22N 33°45' W 118°13'0 0.0
2016-May-29 20:19N 33°45' W 118°13'0 0.0
2016-May-29 19:31N 33°45' W 118°13'0 0.0
2016-May-29 18:31N 33°45' W 118°13'0 0.0
2016-May-29 17:31N 33°45' W 118°13'0 0.0
2016-May-29 16:31N 33°45' W 118°13'0 0.0
2016-May-29 15:31N 33°45' W 118°13'1 0.8
2016-May-29 14:33N 33°46' W 118°13'0 0.2
2016-May-29 13:33N 33°46' W 118°13'0 0.0
2016-May-29 12:33N 33°46' W 118°13'0 0.0
2016-May-29 11:33N 33°46' W 118°13'0 0.0
2016-May-29 10:33N 33°46' W 118°13'0 0.0
2016-May-29 09:33N 33°46' W 118°13'0 0.0
2016-May-29 08:33N 33°46' W 118°13'0 0.0
2016-May-29 07:33N 33°46' W 118°13'0 0.0
2016-May-29 06:33N 33°46' W 118°13'0 0.0
2016-May-29 05:33N 33°46' W 118°13'0 0.0
2016-May-29 04:33N 33°46' W 118°13'0 0.0
2016-May-29 03:33N 33°46' W 118°13'0 0.0
2016-May-29 02:33N 33°46' W 118°13'0 0.0
2016-May-29 01:33N 33°46' W 118°13'0 0.0
2016-May-29 00:33N 33°46' W 118°13'0 0.0
2016-May-28 23:33N 33°46' W 118°13'0 0.0
2016-May-28 22:33N 33°46' W 118°13'0 0.0
2016-May-28 21:33N 33°46' W 118°13'0 0.0
2016-May-28 20:33N 33°46' W 118°13'0 0.0
2016-May-28 19:33N 33°46' W 118°13'0 0.0
2016-May-28 18:33N 33°46' W 118°13'0 0.0
2016-May-28 17:33N 33°46' W 118°13'0 0.0
2016-May-28 16:33N 33°46' W 118°13'0 0.0
2016-May-28 15:33N 33°46' W 118°13'0 0.0
2016-May-28 14:27N 33°46' W 118°13'0 0.0
2016-May-28 13:33N 33°46' W 118°13'0 0.0
2016-May-27 23:27N 33°46' W 118°13'0 0.0
2016-May-27 19:07N 33°46' W 118°13'1 1.7
2016-May-27 18:22N 33°45' W 118°13'1 0.1
2016-May-27 04:29N 33°44' W 118°12'0 0.0
2016-May-26 23:14N 33°44' W 118°12'0 0.0
2016-May-26 13:30N 33°44' W 118°12'5 5.2
2016-May-26 12:32N 33°39' W 118°10'7 7.3
2016-May-26 11:33N 33°32' W 118°08'9 9.5
2016-May-26 10:33N 33°23' W 118°04'1010.3
2016-May-26 09:33N 33°13' W 118°00'1110.6
2016-May-26 08:33N 33°03' W 117°56'1110.7
2016-May-26 07:33N 32°53' W 117°53'1010.5
2016-May-26 06:34N 32°43' W 117°49'1010.4
2016-May-26 05:33N 32°33' W 117°45'7 6.9
2016-May-26 04:33N 32°27' W 117°48'6 6.4
2016-May-26 03:33N 32°22' W 117°43'4 4.2
2016-May-26 02:33N 32°23' W 117°38'1 0.8
2016-May-26 01:33N 32°23' W 117°39'1 0.9
2016-May-26 00:32N 32°24' W 117°40'1 0.8
2016-May-25 23:34N 32°24' W 117°40'1 0.8
2016-May-25 22:33N 32°24' W 117°41'1 0.7
2016-May-25 21:33N 32°25' W 117°42'1 0.6
2016-May-25 20:33N 32°25' W 117°43'1 0.6
2016-May-25 19:33N 32°25' W 117°44'0 0.2
2016-May-25 18:33N 32°25' W 117°44'1 1.2
2016-May-25 17:33N 32°25' W 117°43'7 6.9
2016-May-25 16:33N 32°26' W 117°35'0 0.3
2016-May-25 15:33N 32°25' W 117°35'0 0.3
2016-May-25 14:33N 32°25' W 117°34'0 0.2
2016-May-25 13:33N 32°25' W 117°34'0 0.0
2016-May-25 12:33N 32°25' W 117°34'0 0.1
2016-May-25 11:33N 32°25' W 117°35'0 0.2
2016-May-25 10:33N 32°25' W 117°35'0 0.1
2016-May-25 09:33N 32°25' W 117°35'0 0.2
2016-May-25 08:33N 32°25' W 117°35'0 0.2
2016-May-25 07:33N 32°25' W 117°35'0 0.1
2016-May-25 06:33N 32°25' W 117°35'0 0.0
2016-May-25 05:33N 32°25' W 117°35'0 0.2
2016-May-25 04:33N 32°25' W 117°35'0 0.2
2016-May-25 03:33N 32°25' W 117°35'0 0.1
2016-May-25 02:33N 32°25' W 117°35'0 0.2
2016-May-25 01:33N 32°25' W 117°36'0 0.2
2016-May-25 00:33N 32°25' W 117°36'0 0.4
2016-May-24 23:33N 32°25' W 117°36'0 0.4
2016-May-24 22:32N 32°25' W 117°37'0 0.4
2016-May-24 21:33N 32°25' W 117°37'0 0.5
2016-May-24 20:33N 32°25' W 117°38'0 0.4
2016-May-24 19:33N 32°25' W 117°38'0 0.3
2016-May-24 18:33N 32°25' W 117°39'0 0.2
2016-May-24 17:33N 32°24' W 117°39'0 0.1
2016-May-24 16:33N 32°24' W 117°39'0 0.1
2016-May-24 15:33N 32°24' W 117°39'0 0.1
2016-May-24 14:33N 32°24' W 117°39'0 0.3
2016-May-24 13:33N 32°24' W 117°39'0 0.3
2016-May-24 12:33N 32°24' W 117°40'0 0.2
2016-May-24 11:34N 32°24' W 117°40'0 0.2
2016-May-24 10:33N 32°25' W 117°40'0 0.3
2016-May-24 09:33N 32°25' W 117°40'0 0.3
2016-May-24 08:33N 32°25' W 117°41'0 0.2
2016-May-24 07:33N 32°25' W 117°41'0 0.1
2016-May-24 06:33N 32°25' W 117°41'0 0.2
2016-May-24 05:33N 32°25' W 117°41'0 0.2
2016-May-24 04:33N 32°25' W 117°41'0 0.4
2016-May-24 03:33N 32°26' W 117°41'0 0.4
2016-May-24 02:33N 32°26' W 117°42'1 0.6
2016-May-24 01:33N 32°26' W 117°42'0 0.5
2016-May-24 00:33N 32°26' W 117°43'1 0.5
2016-May-23 23:33N 32°27' W 117°43'1 0.5
2016-May-23 22:33N 32°27' W 117°44'1 0.6
2016-May-23 21:33N 32°27' W 117°44'0 0.4
2016-May-23 20:33N 32°27' W 117°45'0 0.3
2016-May-23 19:33N 32°27' W 117°45'0 0.1
2016-May-23 18:33N 32°26' W 117°45'4 4.1
2016-May-23 17:33N 32°30' W 117°44'3 2.7
2016-May-23 16:33N 32°32' W 117°41'1 0.6
2016-May-23 15:33N 32°32' W 117°42'1 0.6
2016-May-23 14:33N 32°31' W 117°42'0 0.4
2016-May-23 13:33N 32°31' W 117°42'0 0.1
2016-May-23 12:33N 32°31' W 117°42'0 0.1
2016-May-23 11:33N 32°31' W 117°42'0 0.1
2016-May-23 10:33N 32°31' W 117°42'0 0.1
2016-May-23 09:33N 32°31' W 117°42'0 0.1
2016-May-23 08:33N 32°31' W 117°42'0 0.1
2016-May-23 07:33N 32°31' W 117°41'0 0.1
2016-May-23 06:33N 32°31' W 117°41'0 0.1
2016-May-23 05:33N 32°31' W 117°41'0 0.2
2016-May-23 04:32N 32°31' W 117°41'0 0.3
2016-May-23 03:33N 32°31' W 117°41'0 0.4
2016-May-23 02:33N 32°32' W 117°41'0 0.3
2016-May-23 01:33N 32°32' W 117°42'0 0.4
2016-May-23 00:33N 32°32' W 117°42'0 0.3
2016-May-22 23:33N 32°32' W 117°42'0 0.4
2016-May-22 22:33N 32°32' W 117°43'0 0.4
2016-May-22 21:33N 32°32' W 117°43'0 0.4
2016-May-22 20:33N 32°32' W 117°43'0 0.4
2016-May-22 19:33N 32°31' W 117°44'0 0.4
2016-May-22 18:33N 32°31' W 117°44'0 0.3
2016-May-22 17:33N 32°31' W 117°44'0 0.2
2016-May-22 16:33N 32°31' W 117°44'0 0.3
2016-May-22 15:33N 32°30' W 117°45'0 0.4
2016-May-22 14:33N 32°30' W 117°45'0 0.4
2016-May-22 13:33N 32°30' W 117°46'0 0.4
2016-May-22 12:33N 32°30' W 117°46'0 0.4
2016-May-22 11:33N 32°30' W 117°47'0 0.3
2016-May-22 10:33N 32°30' W 117°47'0 0.1
2016-May-22 09:32N 32°30' W 117°47'0 0.0
2016-May-22 08:33N 32°30' W 117°47'0 0.2
2016-May-22 07:33N 32°30' W 117°47'4 4.1
2016-May-22 06:33N 32°26' W 117°46'1312.6
2016-May-22 05:33N 32°14' W 117°42'  

Dump ship's entire track history